createdAt,value
2022-08-17T00:00:12.788Z,24.10
2022-08-17T00:03:22.411Z,24.10
2022-08-17T00:06:01.029Z,24.10
2022-08-17T00:08:34.736Z,24.10
2022-08-17T00:11:06.174Z,24.10
2022-08-17T00:14:09.216Z,24.10
2022-08-17T00:16:55.405Z,23.90
2022-08-17T00:19:26.292Z,23.90
2022-08-17T00:22:32.592Z,24.00
2022-08-17T00:24:43.760Z,24.00
2022-08-17T00:27:10.788Z,23.90
2022-08-17T00:29:37.839Z,23.90
2022-08-17T00:33:14.103Z,23.90
2022-08-17T00:34:52.106Z,23.90
2022-08-17T00:37:19.170Z,23.90
2022-08-17T00:39:46.251Z,23.90
2022-08-17T00:42:20.037Z,23.90
2022-08-17T00:44:47.264Z,23.90
2022-08-17T00:47:14.323Z,23.90
2022-08-17T00:49:41.567Z,23.80
2022-08-17T00:52:16.821Z,23.80
2022-08-17T00:54:47.313Z,23.80
2022-08-17T00:57:50.288Z,23.80
2022-08-17T01:00:26.965Z,23.90
2022-08-17T01:03:08.447Z,23.80
2022-08-17T01:05:42.256Z,23.70
2022-08-17T01:08:13.806Z,23.80
2022-08-17T01:10:59.735Z,23.80
2022-08-17T01:13:30.843Z,23.80
2022-08-17T01:16:18.801Z,23.80
2022-08-17T01:18:49.118Z,23.80
2022-08-17T01:21:20.881Z,23.80
2022-08-17T01:23:48.031Z,23.80
2022-08-17T01:26:15.186Z,23.80
2022-08-17T01:28:54.168Z,23.80
2022-08-17T01:31:25.566Z,23.80
2022-08-17T01:33:52.723Z,23.80
2022-08-17T01:36:19.863Z,23.80
2022-08-17T01:38:46.975Z,23.70
2022-08-17T01:41:16.612Z,23.80
2022-08-17T01:43:57.021Z,23.80
2022-08-17T01:46:28.494Z,23.80
2022-08-17T01:48:57.926Z,23.70
2022-08-17T01:51:27.870Z,23.70
2022-08-17T01:53:58.368Z,23.50
2022-08-17T01:56:27.174Z,23.50
2022-08-17T01:58:54.374Z,23.50
2022-08-17T02:01:26.793Z,23.60
2022-08-17T02:04:00.754Z,23.60
2022-08-17T02:06:52.916Z,23.60
2022-08-17T02:09:29.957Z,23.50
2022-08-17T02:11:59.621Z,23.30
2022-08-17T02:14:26.944Z,23.20
2022-08-17T02:16:54.434Z,23.30
2022-08-17T02:19:22.451Z,23.30
2022-08-17T02:21:53.073Z,23.40
2022-08-17T02:24:59.780Z,23.30
2022-08-17T02:27:19.423Z,23.40
2022-08-17T02:29:46.467Z,23.40
2022-08-17T02:32:25.454Z,23.40
2022-08-17T02:34:56.194Z,23.40
2022-08-17T02:37:23.463Z,23.40
2022-08-17T02:39:50.458Z,23.40
2022-08-17T02:42:17.480Z,23.30
2022-08-17T02:44:45.200Z,23.30
2022-08-17T02:47:12.492Z,23.30
2022-08-17T02:49:39.557Z,23.30
2022-08-17T02:52:08.145Z,23.30
2022-08-17T02:54:40.415Z,23.20
2022-08-17T02:57:10.547Z,23.20
2022-08-17T02:59:46.791Z,23.20
2022-08-17T03:02:16.176Z,23.20
2022-08-17T03:04:43.357Z,23.10
2022-08-17T03:07:10.355Z,23.20
2022-08-17T03:09:37.927Z,23.10
2022-08-17T03:12:10.943Z,23.10
2022-08-17T03:14:41.703Z,23.10
2022-08-17T03:17:10.194Z,23.10
2022-08-17T03:19:37.752Z,23.10
2022-08-17T03:22:35.537Z,23.10
2022-08-17T03:24:57.035Z,23.10
2022-08-17T03:27:24.082Z,23.10
2022-08-17T03:29:51.194Z,23.10
2022-08-17T03:32:20.775Z,23.10
2022-08-17T03:34:48.403Z,23.00
2022-08-17T03:37:16.770Z,22.80
2022-08-17T03:39:43.842Z,22.80
2022-08-17T03:42:31.620Z,22.80
2022-08-17T03:45:00.174Z,22.80
2022-08-17T03:47:46.186Z,22.80
2022-08-17T03:50:32.885Z,22.70
2022-08-17T03:53:21.691Z,22.70
2022-08-17T03:56:18.016Z,22.60
2022-08-17T03:58:45.511Z,22.50
2022-08-17T04:01:12.901Z,22.50
2022-08-17T04:03:40.085Z,22.50
2022-08-17T04:06:07.338Z,22.50
2022-08-17T04:08:34.575Z,22.50
2022-08-17T04:11:16.443Z,22.60
2022-08-17T04:13:43.408Z,22.50
2022-08-17T04:16:10.367Z,22.40
2022-08-17T04:18:38.543Z,22.30
2022-08-17T04:21:08.592Z,22.20
2022-08-17T04:23:36.846Z,22.20
2022-08-17T04:26:04.391Z,22.20
2022-08-17T04:28:31.434Z,22.20
2022-08-17T04:30:59.085Z,22.20
2022-08-17T04:33:28.540Z,22.20
2022-08-17T04:35:59.491Z,22.30
2022-08-17T04:38:29.465Z,22.30
2022-08-17T04:41:17.134Z,22.40
2022-08-17T04:43:44.794Z,22.50
2022-08-17T04:46:15.129Z,22.40
2022-08-17T04:48:45.379Z,22.30
2022-08-17T04:51:14.049Z,22.30
2022-08-17T04:53:44.906Z,22.40
2022-08-17T04:56:18.118Z,22.40
2022-08-17T04:58:48.180Z,22.40
2022-08-17T05:01:17.624Z,22.50
2022-08-17T05:03:56.273Z,22.50
2022-08-17T05:06:24.272Z,22.50
2022-08-17T05:08:51.556Z,22.40
2022-08-17T05:11:18.670Z,22.40
2022-08-17T05:13:46.055Z,22.50
2022-08-17T05:16:13.242Z,22.50
2022-08-17T05:18:40.583Z,22.50
2022-08-17T05:21:08.361Z,22.50
2022-08-17T05:23:42.776Z,22.40
2022-08-17T05:26:25.645Z,22.30
2022-08-17T05:28:57.214Z,22.30
2022-08-17T05:31:27.402Z,22.20
2022-08-17T05:33:54.476Z,22.30
2022-08-17T05:36:38.070Z,22.30
2022-08-17T05:39:08.580Z,22.30
2022-08-17T05:41:42.703Z,22.30
2022-08-17T05:44:09.832Z,22.30
2022-08-17T05:46:40.709Z,22.20
2022-08-17T05:49:08.683Z,22.30
2022-08-17T05:52:03.994Z,22.30
2022-08-17T05:55:03.453Z,22.30
2022-08-17T05:57:43.613Z,22.40
2022-08-17T06:00:31.766Z,22.40
2022-08-17T06:03:29.010Z,22.50
2022-08-17T06:06:17.170Z,22.50
2022-08-17T06:08:53.220Z,22.60
2022-08-17T06:11:43.192Z,22.60
2022-08-17T06:14:41.956Z,22.80
2022-08-17T06:17:14.633Z,22.80
2022-08-17T06:19:48.235Z,22.90
2022-08-17T06:22:19.368Z,23.00
2022-08-17T06:24:57.066Z,23.00
2022-08-17T06:27:30.633Z,23.10
2022-08-17T06:30:12.437Z,23.10
2022-08-17T06:32:43.780Z,23.20
2022-08-17T06:35:14.248Z,23.20
2022-08-17T06:37:59.731Z,23.20
2022-08-17T06:40:45.747Z,23.30
2022-08-17T06:43:25.039Z,23.30
2022-08-17T06:46:19.305Z,23.30
2022-08-17T06:49:09.489Z,23.30
2022-08-17T06:51:41.444Z,23.30
2022-08-17T06:54:26.138Z,23.30
2022-08-17T06:57:16.874Z,23.30
2022-08-17T06:59:56.794Z,23.40
2022-08-17T07:02:58.417Z,23.50
2022-08-17T07:05:36.751Z,23.60
2022-08-17T07:08:35.258Z,23.70
2022-08-17T07:11:14.723Z,23.70
2022-08-17T07:13:51.746Z,23.70
2022-08-17T07:16:28.445Z,23.70
2022-08-17T07:18:57.420Z,23.70
2022-08-17T07:21:49.852Z,23.80
2022-08-17T07:24:37.532Z,23.90
2022-08-17T07:27:09.769Z,23.90
2022-08-17T07:29:44.876Z,23.90
2022-08-17T07:32:18.550Z,23.90
2022-08-17T07:35:31.248Z,23.90
2022-08-17T07:38:25.891Z,24.00
2022-08-17T07:41:03.150Z,24.00
2022-08-17T07:43:39.261Z,24.00
2022-08-17T07:46:33.118Z,24.10
2022-08-17T07:49:08.670Z,24.10
2022-08-17T07:51:38.537Z,24.20
2022-08-17T07:54:23.429Z,24.20
2022-08-17T07:56:52.632Z,24.20
2022-08-17T07:59:23.026Z,24.20
2022-08-17T08:01:58.187Z,24.20
2022-08-17T08:04:58.846Z,24.20
2022-08-17T08:07:17.471Z,24.20
2022-08-17T08:09:59.776Z,24.20
2022-08-17T08:12:34.128Z,24.20
2022-08-17T08:15:13.840Z,24.20
2022-08-17T08:17:59.522Z,24.20
2022-08-17T08:20:51.896Z,24.20
2022-08-17T08:23:29.999Z,24.20
2022-08-17T08:25:59.728Z,24.10
2022-08-17T08:28:45.668Z,24.10
2022-08-17T08:31:44.772Z,24.10
2022-08-17T08:34:58.707Z,24.20
2022-08-17T08:37:33.212Z,24.20
2022-08-17T08:40:11.543Z,24.20
2022-08-17T08:43:07.908Z,24.20
2022-08-17T08:46:01.559Z,24.20
2022-08-17T08:48:53.293Z,24.20
2022-08-17T08:51:30.693Z,24.20
2022-08-17T08:54:10.759Z,24.20
2022-08-17T08:57:19.284Z,24.20
2022-08-17T08:59:59.737Z,24.10
2022-08-17T09:02:56.646Z,24.10
2022-08-17T09:05:42.404Z,24.00
2022-08-17T09:08:23.506Z,23.90
2022-08-17T09:11:10.943Z,23.80
2022-08-17T09:13:54.592Z,23.70
2022-08-17T09:16:29.967Z,23.70
2022-08-17T09:19:11.881Z,23.70
2022-08-17T09:21:48.642Z,23.70
2022-08-17T09:24:28.523Z,23.70
2022-08-17T09:26:59.590Z,23.60
2022-08-17T09:29:35.327Z,23.60
2022-08-17T09:32:20.415Z,23.70
2022-08-17T09:34:54.979Z,23.70
2022-08-17T09:37:38.074Z,23.70
2022-08-17T09:40:20.124Z,23.60
2022-08-17T09:43:02.054Z,23.60
2022-08-17T09:45:42.829Z,23.50
2022-08-17T09:48:21.040Z,23.40
2022-08-17T09:51:06.575Z,23.40
2022-08-17T09:53:36.973Z,23.40
2022-08-17T09:56:13.071Z,23.40
2022-08-17T09:58:56.810Z,23.30
2022-08-17T10:01:37.579Z,23.30
2022-08-17T10:04:14.480Z,23.10
2022-08-17T10:06:59.254Z,23.10
2022-08-17T10:10:02.850Z,23.20
2022-08-17T10:12:53.192Z,23.30
2022-08-17T10:15:50.421Z,23.40
2022-08-17T10:19:02.320Z,23.30
2022-08-17T10:22:01.344Z,23.30
2022-08-17T10:25:21.618Z,23.30
2022-08-17T10:27:52.484Z,23.30
2022-08-17T10:30:24.044Z,23.20
2022-08-17T10:32:59.378Z,23.20
2022-08-17T10:36:10.809Z,23.10
2022-08-17T10:38:47.852Z,23.10
2022-08-17T10:41:50.668Z,23.00
2022-08-17T10:44:38.631Z,22.90
2022-08-17T10:47:15.376Z,22.80
2022-08-17T10:49:49.774Z,22.70
2022-08-17T10:52:20.006Z,22.70
2022-08-17T10:54:51.597Z,22.70
2022-08-17T10:57:31.931Z,22.60
2022-08-17T11:00:01.377Z,22.60
2022-08-17T11:02:38.702Z,22.60
2022-08-17T11:05:32.507Z,22.60
2022-08-17T11:08:36.409Z,22.70
2022-08-17T11:11:36.653Z,22.90
2022-08-17T11:14:31.427Z,23.00
2022-08-17T11:17:13.341Z,23.10
2022-08-17T11:19:47.310Z,23.10
2022-08-17T11:22:48.865Z,23.10
2022-08-17T11:25:22.842Z,23.10
2022-08-17T11:28:04.448Z,23.00
2022-08-17T11:30:48.683Z,23.00
2022-08-17T11:33:36.941Z,23.10
2022-08-17T11:36:46.495Z,23.10
2022-08-17T11:39:37.954Z,23.10
2022-08-17T11:42:20.126Z,23.10
2022-08-17T11:45:08.758Z,23.00
2022-08-17T11:48:27.138Z,23.00
2022-08-17T11:51:24.719Z,22.90
2022-08-17T11:54:03.544Z,22.80
2022-08-17T11:56:46.965Z,22.80
2022-08-17T11:59:42.056Z,22.70
2022-08-17T12:02:36.294Z,22.70
2022-08-17T12:05:12.643Z,22.60
2022-08-17T12:07:52.171Z,22.50
2022-08-17T12:10:23.914Z,22.50
2022-08-17T12:12:53.262Z,22.60
2022-08-17T12:15:30.874Z,22.60
2022-08-17T12:17:58.361Z,22.60
2022-08-17T12:20:43.579Z,22.60
2022-08-17T12:23:23.150Z,22.60
2022-08-17T12:26:13.237Z,22.60
2022-08-17T12:28:46.124Z,22.70
2022-08-17T12:31:21.922Z,22.80
2022-08-17T12:33:50.311Z,22.80
2022-08-17T12:36:24.930Z,22.80
2022-08-17T12:39:12.898Z,22.70
2022-08-17T12:41:45.009Z,22.80
2022-08-17T12:44:12.393Z,22.80
2022-08-17T12:46:56.278Z,22.80
2022-08-17T12:49:30.966Z,22.90
2022-08-17T12:52:26.816Z,23.00
2022-08-17T12:55:00.582Z,23.10
2022-08-17T12:57:41.763Z,23.00
2022-08-17T13:00:31.430Z,23.00
2022-08-17T13:03:03.551Z,23.00
2022-08-17T13:05:37.122Z,23.10
2022-08-17T13:08:37.960Z,23.10
2022-08-17T13:11:06.405Z,23.10
2022-08-17T13:13:36.590Z,23.10
2022-08-17T13:16:09.674Z,23.10
2022-08-17T13:18:47.514Z,23.20
2022-08-17T13:21:30.573Z,23.20
2022-08-17T13:24:13.966Z,23.30
2022-08-17T13:26:45.637Z,23.20
2022-08-17T13:29:26.962Z,23.10
2022-08-17T13:32:13.713Z,23.10
2022-08-17T13:35:11.761Z,23.10
2022-08-17T13:37:37.833Z,23.10
2022-08-17T13:40:10.955Z,23.20
2022-08-17T13:42:54.640Z,23.20
2022-08-17T13:45:36.695Z,23.30
2022-08-17T13:48:11.167Z,23.40
2022-08-17T13:50:47.320Z,23.40
2022-08-17T13:53:19.307Z,23.40
2022-08-17T13:55:56.534Z,23.40
2022-08-17T13:58:32.281Z,23.40
2022-08-17T14:01:19.686Z,23.30
2022-08-17T14:03:46.670Z,23.30
2022-08-17T14:06:22.157Z,23.30
2022-08-17T14:09:05.520Z,23.30
2022-08-17T14:11:32.755Z,23.30
2022-08-17T14:13:59.831Z,23.30
2022-08-17T14:16:26.802Z,23.30
2022-08-17T14:18:56.604Z,23.30
2022-08-17T14:21:24.260Z,23.40
2022-08-17T14:23:54.733Z,23.40
2022-08-17T14:26:23.202Z,23.50
2022-08-17T14:28:56.600Z,23.60
2022-08-17T14:31:24.194Z,23.60
2022-08-17T14:33:52.269Z,23.70
2022-08-17T14:36:19.274Z,23.70
2022-08-17T14:38:46.349Z,23.70
2022-08-17T14:41:14.319Z,23.70
2022-08-17T14:43:44.245Z,23.90
2022-08-17T14:46:12.489Z,23.90
2022-08-17T14:48:40.794Z,24.10
2022-08-17T14:51:07.886Z,24.30
2022-08-17T14:53:34.972Z,24.50
2022-08-17T14:56:02.187Z,24.80
2022-08-17T14:58:29.850Z,24.80
2022-08-17T15:00:57.706Z,24.80
2022-08-17T15:03:24.940Z,24.80
2022-08-17T15:05:51.990Z,24.80
2022-08-17T15:08:19.724Z,24.80
2022-08-17T15:10:49.346Z,24.80
2022-08-17T15:13:22.243Z,24.90
2022-08-17T15:15:50.299Z,24.90
2022-08-17T15:18:17.987Z,25.00
2022-08-17T15:20:46.424Z,25.10
2022-08-17T15:23:19.361Z,25.10
2022-08-17T15:25:48.664Z,25.20
2022-08-17T15:28:16.280Z,25.40
2022-08-17T15:30:45.077Z,25.40
2022-08-17T15:33:21.885Z,25.30
2022-08-17T15:35:56.378Z,25.20
2022-08-17T15:38:23.653Z,25.10
2022-08-17T15:40:52.037Z,25.00
2022-08-17T15:43:33.266Z,25.10
2022-08-17T15:46:12.456Z,25.20
2022-08-17T15:48:42.205Z,25.40
2022-08-17T15:51:16.128Z,25.40
2022-08-17T15:53:45.637Z,25.50
2022-08-17T15:56:13.824Z,25.70
2022-08-17T15:58:42.476Z,26.00
2022-08-17T16:01:14.102Z,26.20
2022-08-17T16:04:04.013Z,26.30
2022-08-17T16:06:31.452Z,26.50
2022-08-17T16:08:59.648Z,26.60
2022-08-17T16:11:27.118Z,26.70
2022-08-17T16:13:55.138Z,26.70
2022-08-17T16:16:23.841Z,26.60
2022-08-17T16:18:54.693Z,26.30
2022-08-17T16:21:26.071Z,26.30
2022-08-17T16:24:03.963Z,26.50
2022-08-17T16:26:33.608Z,26.60
2022-08-17T16:29:04.539Z,26.80
2022-08-17T16:31:32.439Z,27.00
2022-08-17T16:34:16.211Z,27.10
2022-08-17T16:36:55.741Z,27.20
2022-08-17T16:39:29.387Z,27.20
2022-08-17T16:41:57.623Z,27.20
2022-08-17T16:44:31.150Z,27.20
2022-08-17T16:47:01.105Z,27.20
2022-08-17T16:49:37.234Z,27.20
2022-08-17T16:52:07.765Z,27.30
2022-08-17T16:54:37.097Z,27.30
2022-08-17T16:57:05.538Z,27.40
2022-08-17T16:59:41.119Z,27.50
2022-08-17T17:02:13.298Z,27.50
2022-08-17T17:04:50.210Z,27.40
2022-08-17T17:07:35.893Z,27.40
2022-08-17T17:10:07.854Z,27.20
2022-08-17T17:13:03.579Z,27.10
2022-08-17T17:15:33.063Z,27.20
2022-08-17T17:18:07.060Z,27.00
2022-08-17T17:20:47.494Z,26.80
2022-08-17T17:23:42.174Z,26.70
2022-08-17T17:26:18.928Z,26.60
2022-08-17T17:29:08.120Z,26.40
2022-08-17T17:32:05.859Z,26.40
2022-08-17T17:34:35.148Z,26.30
2022-08-17T17:37:20.840Z,26.10
2022-08-17T17:40:00.141Z,26.00
2022-08-17T17:42:33.183Z,25.90
2022-08-17T17:45:33.072Z,25.80
2022-08-17T17:48:00.027Z,25.70
2022-08-17T17:50:36.676Z,25.40
2022-08-17T17:53:09.796Z,25.30
2022-08-17T17:55:45.631Z,25.10
2022-08-17T17:58:50.737Z,24.90
2022-08-17T18:01:33.532Z,24.70
2022-08-17T18:04:27.835Z,24.50
2022-08-17T18:07:13.171Z,24.40
2022-08-17T18:10:01.014Z,24.20
2022-08-17T18:12:58.406Z,24.10
2022-08-17T18:15:35.937Z,23.90
2022-08-17T18:18:14.770Z,23.80
2022-08-17T18:20:54.082Z,23.70
2022-08-17T18:23:28.160Z,23.60
2022-08-17T18:25:57.050Z,23.50
2022-08-17T18:28:28.081Z,23.40
2022-08-17T18:31:09.692Z,23.40
2022-08-17T18:33:38.716Z,23.30
2022-08-17T18:36:06.957Z,23.30
2022-08-17T18:38:38.717Z,23.30
2022-08-17T18:41:23.824Z,23.20
2022-08-17T18:44:54.318Z,23.10
2022-08-17T18:47:27.968Z,23.10
2022-08-17T18:49:58.761Z,23.00
2022-08-17T18:52:32.057Z,22.90
2022-08-17T18:55:08.933Z,22.90
2022-08-17T18:57:45.869Z,22.80
2022-08-17T19:00:22.013Z,22.80
2022-08-17T19:02:55.959Z,22.70
2022-08-17T19:05:35.222Z,22.60
2022-08-17T19:08:19.736Z,22.50
2022-08-17T19:10:56.382Z,22.40
2022-08-17T19:13:34.077Z,22.30
2022-08-17T19:16:25.377Z,22.20
2022-08-17T19:19:14.523Z,22.10
2022-08-17T19:21:53.348Z,22.10
2022-08-17T19:24:26.733Z,22.10
2022-08-17T19:27:17.829Z,22.10
2022-08-17T19:30:01.704Z,22.10
2022-08-17T19:32:35.489Z,22.10
2022-08-17T19:35:06.450Z,22.10
2022-08-17T19:37:43.132Z,22.10
2022-08-17T19:41:02.012Z,22.00
2022-08-17T19:44:07.350Z,22.00
2022-08-17T19:47:06.338Z,22.00
2022-08-17T19:50:12.339Z,22.00
2022-08-17T19:53:07.417Z,21.90
2022-08-17T19:55:48.661Z,21.90
2022-08-17T19:58:48.395Z,21.80
2022-08-17T20:01:34.661Z,21.80
2022-08-17T20:04:27.016Z,21.80
2022-08-17T20:07:14.544Z,21.70
2022-08-17T20:10:04.244Z,21.70
2022-08-17T20:12:36.288Z,21.70
2022-08-17T20:15:17.128Z,21.60
2022-08-17T20:17:46.965Z,21.50
2022-08-17T20:20:55.911Z,21.40
2022-08-17T20:23:28.809Z,21.50
2022-08-17T20:26:19.106Z,21.60
2022-08-17T20:29:14.056Z,21.80
2022-08-17T20:31:55.899Z,21.80
2022-08-17T20:34:47.821Z,21.90
2022-08-17T20:37:14.820Z,21.90
2022-08-17T20:39:52.744Z,22.00
2022-08-17T20:42:22.690Z,22.00
2022-08-17T20:45:05.885Z,22.00
2022-08-17T20:47:55.344Z,22.00
2022-08-17T20:50:33.775Z,22.00
2022-08-17T20:53:09.293Z,22.00
2022-08-17T20:55:51.382Z,22.00
2022-08-17T20:58:21.338Z,22.00
2022-08-17T21:00:57.683Z,22.00
2022-08-17T21:03:26.914Z,22.00
2022-08-17T21:06:00.253Z,21.90
2022-08-17T21:08:53.827Z,21.90
2022-08-17T21:11:56.777Z,21.90
2022-08-17T21:14:43.224Z,21.90
2022-08-17T21:17:26.429Z,21.90
2022-08-17T21:20:17.402Z,21.80
2022-08-17T21:22:56.390Z,21.70
2022-08-17T21:25:24.911Z,21.80
2022-08-17T21:28:33.821Z,21.70
2022-08-17T21:31:09.222Z,21.70
2022-08-17T21:33:38.749Z,21.60
2022-08-17T21:36:11.960Z,21.60
2022-08-17T21:38:55.683Z,21.60
2022-08-17T21:41:26.651Z,21.60
2022-08-17T21:44:01.887Z,21.50
2022-08-17T21:46:37.807Z,21.50
2022-08-17T21:49:13.481Z,21.50
2022-08-17T21:51:45.826Z,21.50
2022-08-17T21:54:39.087Z,21.40
2022-08-17T21:57:15.906Z,21.40
2022-08-17T21:59:44.398Z,21.30
2022-08-17T22:02:25.115Z,21.30
2022-08-17T22:05:03.631Z,21.30
2022-08-17T22:07:59.087Z,21.30
2022-08-17T22:10:40.139Z,21.30
2022-08-17T22:13:16.748Z,21.20
2022-08-17T22:15:48.072Z,21.20
2022-08-17T22:18:24.966Z,21.10
2022-08-17T22:20:58.740Z,21.10
2022-08-17T22:23:59.657Z,21.10
2022-08-17T22:26:48.638Z,21.10
2022-08-17T22:29:57.149Z,21.00
2022-08-17T22:32:37.411Z,21.10
2022-08-17T22:35:29.023Z,21.00
2022-08-17T22:37:57.291Z,21.10
2022-08-17T22:40:30.713Z,21.00
2022-08-17T22:42:59.423Z,21.00
2022-08-17T22:45:30.004Z,21.10
2022-08-17T22:47:58.898Z,21.10
2022-08-17T22:50:33.064Z,21.00
2022-08-17T22:53:31.622Z,21.00
2022-08-17T22:56:17.229Z,21.00
2022-08-17T22:59:30.822Z,21.00
2022-08-17T23:02:35.771Z,20.90
2022-08-17T23:05:17.236Z,20.90
2022-08-17T23:07:45.986Z,20.80
2022-08-17T23:10:14.055Z,20.80
2022-08-17T23:12:41.251Z,20.80
2022-08-17T23:15:15.251Z,20.80
2022-08-17T23:17:42.322Z,20.80
2022-08-17T23:20:12.827Z,20.70
2022-08-17T23:22:51.186Z,20.70
2022-08-17T23:25:30.891Z,20.70
2022-08-17T23:28:01.760Z,20.60
2022-08-17T23:30:34.016Z,20.60
2022-08-17T23:33:05.763Z,20.70
2022-08-17T23:35:39.966Z,20.70
2022-08-17T23:38:10.207Z,20.60
2022-08-17T23:40:39.385Z,20.60
2022-08-17T23:43:23.937Z,20.60
2022-08-17T23:45:54.756Z,20.60
2022-08-17T23:48:34.913Z,20.60
2022-08-17T23:51:06.074Z,20.60
2022-08-17T23:53:35.115Z,20.60
2022-08-17T23:56:10.042Z,20.50
2022-08-17T23:58:40.117Z,20.40
